createdAt,value
2023-01-20T00:00:33.551Z,0.19
2023-01-20T00:03:03.010Z,0.18
2023-01-20T00:05:30.617Z,0.14
2023-01-20T00:07:58.259Z,-0.12
2023-01-20T00:10:25.888Z,-0.35
2023-01-20T00:12:56.810Z,-0.34
2023-01-20T00:15:24.389Z,0.06
2023-01-20T00:17:52.019Z,0.14
2023-01-20T00:20:19.694Z,0.01
2023-01-20T00:22:47.203Z,-0.10
2023-01-20T00:25:15.343Z,-0.04
2023-01-20T00:27:43.074Z,-0.12
2023-01-20T00:30:13.258Z,-0.04
2023-01-20T00:32:44.669Z,-0.04
2023-01-20T00:35:12.624Z,0.18
2023-01-20T00:37:40.479Z,0.22
2023-01-20T00:40:09.172Z,0.16
2023-01-20T00:42:36.796Z,0.37
2023-01-20T00:45:04.836Z,0.41
2023-01-20T00:47:33.683Z,0.44
2023-01-20T00:50:16.871Z,0.45
2023-01-20T00:52:44.305Z,0.68
2023-01-20T00:55:12.451Z,0.80
2023-01-20T00:57:40.404Z,0.77
2023-01-20T01:00:09.148Z,0.36
2023-01-20T01:02:40.436Z,0.25
2023-01-20T01:05:08.328Z,0.01
2023-01-20T01:07:35.780Z,-0.02
2023-01-20T01:10:03.265Z,0.26
2023-01-20T01:12:30.737Z,0.46
2023-01-20T01:14:58.220Z,0.62
2023-01-20T01:17:25.714Z,0.68
2023-01-20T01:19:54.710Z,0.54
2023-01-20T01:22:22.849Z,0.46
2023-01-20T01:24:50.313Z,0.53
2023-01-20T01:27:17.885Z,0.59
2023-01-20T01:29:45.319Z,0.40
2023-01-20T01:32:12.817Z,0.24
2023-01-20T01:34:40.276Z,0.00
2023-01-20T01:37:09.093Z,-0.09
2023-01-20T01:39:36.550Z,0.00
2023-01-20T01:42:04.052Z,-0.04
2023-01-20T01:44:32.853Z,-0.10
2023-01-20T01:47:00.316Z,-0.34
2023-01-20T01:49:29.591Z,-0.27
2023-01-20T01:52:00.029Z,-0.36
2023-01-20T01:54:32.281Z,-0.21
2023-01-20T01:57:00.456Z,-0.25
2023-01-20T01:59:28.212Z,-0.23
2023-01-20T02:01:55.982Z,-0.41
2023-01-20T02:04:25.107Z,-0.41
2023-01-20T02:06:55.566Z,0.04
2023-01-20T02:09:23.466Z,0.22
2023-01-20T02:11:54.669Z,0.26
2023-01-20T02:14:24.185Z,0.31
2023-01-20T02:16:59.277Z,0.51
2023-01-20T02:19:59.555Z,0.31
2023-01-20T02:22:34.230Z,0.04
2023-01-20T02:25:21.324Z,-0.32
2023-01-20T02:28:19.345Z,-0.26
2023-01-20T02:30:58.406Z,-0.41
2023-01-20T02:33:29.516Z,-0.51
2023-01-20T02:36:00.526Z,-0.75
2023-01-20T02:38:32.737Z,-0.63
2023-01-20T02:41:08.393Z,-0.67
2023-01-20T02:43:39.818Z,-0.74
2023-01-20T02:46:12.885Z,-0.77
2023-01-20T02:48:44.268Z,-0.94
2023-01-20T02:51:14.768Z,-0.98
2023-01-20T02:53:49.294Z,-0.82
2023-01-20T02:56:17.893Z,-0.41
2023-01-20T02:58:50.388Z,-0.30
2023-01-20T03:01:21.791Z,-0.58
2023-01-20T03:03:53.100Z,-0.38
2023-01-20T03:06:22.781Z,-0.26
2023-01-20T03:08:52.401Z,-0.12
2023-01-20T03:11:20.250Z,0.06
2023-01-20T03:13:51.749Z,-0.24
2023-01-20T03:16:21.830Z,-0.13
2023-01-20T03:18:51.147Z,-0.14
2023-01-20T03:21:19.286Z,-0.17
2023-01-20T03:23:49.139Z,-0.05
2023-01-20T03:26:18.389Z,-0.13
2023-01-20T03:28:46.962Z,0.09
2023-01-20T03:31:17.112Z,0.09
2023-01-20T03:33:45.530Z,0.14
2023-01-20T03:36:16.030Z,0.11
2023-01-20T03:38:43.749Z,-0.01
2023-01-20T03:41:17.651Z,-0.24
2023-01-20T03:43:49.219Z,-0.39
2023-01-20T03:46:21.740Z,0.01
2023-01-20T03:48:53.690Z,0.19
2023-01-20T03:51:26.888Z,0.30
2023-01-20T03:53:57.635Z,0.22
2023-01-20T03:56:29.276Z,0.24
2023-01-20T03:58:59.057Z,0.06
2023-01-20T04:01:31.605Z,-0.07
2023-01-20T04:04:00.269Z,0.15
2023-01-20T04:06:30.035Z,0.30
2023-01-20T04:09:01.554Z,0.46
2023-01-20T04:11:29.928Z,0.31
2023-01-20T04:13:57.622Z,0.41
2023-01-20T04:16:26.181Z,0.46
2023-01-20T04:18:54.377Z,0.47
2023-01-20T04:21:25.634Z,0.40
2023-01-20T04:23:57.271Z,0.42
2023-01-20T04:26:24.733Z,0.37
2023-01-20T04:28:52.230Z,0.34
2023-01-20T04:31:30.209Z,-0.13
2023-01-20T04:33:58.270Z,-0.02
2023-01-20T04:36:25.944Z,0.10
2023-01-20T04:38:54.861Z,-0.08
2023-01-20T04:41:22.320Z,-0.05
2023-01-20T04:43:49.842Z,0.11
2023-01-20T04:46:17.447Z,0.04
2023-01-20T04:48:45.924Z,0.18
2023-01-20T04:51:13.794Z,0.33
2023-01-20T04:53:41.339Z,0.10
2023-01-20T04:56:13.296Z,-0.37
2023-01-20T04:58:41.099Z,-0.42
2023-01-20T05:01:08.733Z,-0.31
2023-01-20T05:03:36.324Z,-0.01
2023-01-20T05:06:04.045Z,0.03
2023-01-20T05:08:31.567Z,-0.19
2023-01-20T05:10:59.279Z,0.02
2023-01-20T05:13:28.113Z,0.19
2023-01-20T05:15:55.865Z,0.27
2023-01-20T05:18:23.360Z,0.33
2023-01-20T05:20:51.317Z,0.37
2023-01-20T05:23:18.803Z,0.30
2023-01-20T05:25:51.083Z,0.06
2023-01-20T05:28:18.603Z,-0.35
2023-01-20T05:30:48.462Z,-0.51
2023-01-20T05:33:16.028Z,-0.25
2023-01-20T05:35:43.573Z,-0.08
2023-01-20T05:38:11.084Z,0.16
2023-01-20T05:40:38.570Z,-0.17
2023-01-20T05:43:06.115Z,-0.47
2023-01-20T05:45:33.669Z,-0.21
2023-01-20T05:48:03.124Z,-0.21
2023-01-20T05:50:30.782Z,-0.26
2023-01-20T05:52:58.239Z,-0.21
2023-01-20T05:55:25.762Z,0.08
2023-01-20T05:57:53.228Z,0.16
2023-01-20T06:00:21.503Z,-0.23
2023-01-20T06:02:49.093Z,-0.46
2023-01-20T06:05:18.349Z,-0.62
2023-01-20T06:07:45.873Z,-0.55
2023-01-20T06:10:13.646Z,-0.57
2023-01-20T06:12:41.201Z,-0.56
2023-01-20T06:15:09.552Z,-0.77
2023-01-20T06:17:37.070Z,-0.81
2023-01-20T06:20:06.226Z,-0.82
2023-01-20T06:22:35.073Z,-0.70
2023-01-20T06:25:02.677Z,-0.22
2023-01-20T06:27:30.182Z,-0.01
2023-01-20T06:29:57.704Z,-0.17
2023-01-20T06:32:25.218Z,-0.47
2023-01-20T06:34:53.301Z,-0.19
2023-01-20T06:37:20.861Z,-0.39
2023-01-20T06:39:49.697Z,-0.58
2023-01-20T06:42:17.157Z,-0.59
2023-01-20T06:44:44.889Z,-0.70
2023-01-20T06:47:12.391Z,-0.65
2023-01-20T06:49:39.969Z,-0.54
2023-01-20T06:52:08.261Z,-0.19
2023-01-20T06:54:35.804Z,-0.13
2023-01-20T06:57:04.872Z,-0.52
2023-01-20T06:59:32.364Z,-0.68
2023-01-20T07:01:59.902Z,-0.69
2023-01-20T07:04:27.452Z,-0.44
2023-01-20T07:06:54.912Z,-0.70
2023-01-20T07:09:22.458Z,-0.79
2023-01-20T07:11:49.938Z,-0.78
2023-01-20T07:14:18.750Z,-0.80
2023-01-20T07:16:47.481Z,-0.91
2023-01-20T07:19:15.096Z,-0.63
2023-01-20T07:21:42.569Z,-0.44
2023-01-20T07:24:10.498Z,-0.74
2023-01-20T07:26:37.973Z,-0.77
2023-01-20T07:29:05.473Z,-0.58
2023-01-20T07:31:34.422Z,-0.69
2023-01-20T07:34:02.038Z,-0.86
2023-01-20T07:36:29.576Z,-0.51
2023-01-20T07:38:57.070Z,-0.36
2023-01-20T07:41:24.564Z,-0.56
2023-01-20T07:44:15.936Z,-0.45
2023-01-20T07:46:44.855Z,-0.60
2023-01-20T07:49:12.787Z,-0.67
2023-01-20T07:51:40.323Z,-0.57
2023-01-20T07:54:09.271Z,-0.60
2023-01-20T07:56:36.748Z,-0.64
2023-01-20T07:59:04.275Z,-0.66
2023-01-20T08:01:33.172Z,-0.72
2023-01-20T08:04:02.058Z,-0.68
2023-01-20T08:06:30.299Z,-0.62
2023-01-20T08:09:00.865Z,-0.68
2023-01-20T08:11:28.553Z,-0.67
2023-01-20T08:13:56.174Z,-0.65
2023-01-20T08:16:24.009Z,-0.65
2023-01-20T08:18:54.053Z,-0.56
2023-01-20T08:21:24.494Z,-0.55
2023-01-20T08:23:52.046Z,-0.51
2023-01-20T08:26:20.366Z,-0.55
2023-01-20T08:28:48.387Z,-0.57
2023-01-20T08:31:17.861Z,-0.27
2023-01-20T08:33:45.867Z,-0.05
2023-01-20T08:36:15.251Z,-0.33
2023-01-20T08:38:44.336Z,-0.31
2023-01-20T08:41:13.743Z,-0.39
2023-01-20T08:43:41.310Z,-0.30
2023-01-20T08:46:10.332Z,-0.47
2023-01-20T08:48:39.149Z,-0.47
2023-01-20T08:51:08.686Z,-0.48
2023-01-20T08:53:36.487Z,-0.37
2023-01-20T08:56:05.739Z,-0.30
2023-01-20T08:58:33.550Z,-0.40
2023-01-20T09:01:01.312Z,-0.28
2023-01-20T09:03:29.026Z,-0.14
2023-01-20T09:05:59.221Z,-0.20
2023-01-20T09:08:27.311Z,-0.39
2023-01-20T09:10:57.381Z,-0.36
2023-01-20T09:13:26.202Z,-0.08
2023-01-20T09:15:53.890Z,0.20
2023-01-20T09:18:21.407Z,0.28
2023-01-20T09:20:48.862Z,0.54
2023-01-20T09:23:16.375Z,0.62
2023-01-20T09:25:43.929Z,0.52
2023-01-20T09:28:12.006Z,0.59
2023-01-20T09:30:42.664Z,0.50
2023-01-20T09:33:11.064Z,0.36
2023-01-20T09:35:38.560Z,0.39
2023-01-20T09:38:24.247Z,0.08
2023-01-20T09:41:17.541Z,0.21
2023-01-20T09:43:55.362Z,0.23
2023-01-20T09:46:30.297Z,0.30
2023-01-20T09:49:23.223Z,0.12
2023-01-20T09:52:15.308Z,0.15
2023-01-20T09:54:46.273Z,0.24
2023-01-20T09:57:14.293Z,0.53
2023-01-20T09:59:45.313Z,0.73
2023-01-20T10:02:18.977Z,0.83
2023-01-20T10:04:49.056Z,0.72
2023-01-20T10:07:24.044Z,0.55
2023-01-20T10:09:55.714Z,0.61
2023-01-20T10:12:28.450Z,0.36
2023-01-20T10:15:01.451Z,0.53
2023-01-20T10:17:33.162Z,0.62
2023-01-20T10:20:04.585Z,0.87
2023-01-20T10:22:33.457Z,0.83
2023-01-20T10:25:05.451Z,0.75
2023-01-20T10:27:34.534Z,0.92
2023-01-20T10:30:07.429Z,0.76
2023-01-20T10:32:38.420Z,0.61
2023-01-20T10:35:15.247Z,0.81
2023-01-20T10:37:43.151Z,0.82
2023-01-20T10:40:18.385Z,0.79
2023-01-20T10:42:49.120Z,0.71
2023-01-20T10:45:21.339Z,0.78
2023-01-20T10:47:56.384Z,0.81
2023-01-20T10:50:35.972Z,0.98
2023-01-20T10:53:25.094Z,1.12
2023-01-20T10:56:03.647Z,1.07
2023-01-20T10:58:32.326Z,1.37
2023-01-20T11:01:03.459Z,1.32
2023-01-20T11:03:36.136Z,1.43
2023-01-20T11:06:04.565Z,1.59
2023-01-20T11:08:32.079Z,1.78
2023-01-20T11:11:01.007Z,1.95
2023-01-20T11:13:28.609Z,2.02
2023-01-20T11:15:58.171Z,2.04
2023-01-20T11:18:28.831Z,1.95
2023-01-20T11:21:00.453Z,1.68
2023-01-20T11:23:35.663Z,1.67
2023-01-20T11:26:09.909Z,1.81
2023-01-20T11:28:49.854Z,2.01
2023-01-20T11:31:17.825Z,1.95
2023-01-20T11:33:59.568Z,1.92
2023-01-20T11:36:28.477Z,2.11
2023-01-20T11:38:57.241Z,2.17
2023-01-20T11:41:26.640Z,1.98
2023-01-20T11:43:57.259Z,2.08
2023-01-20T11:46:28.079Z,2.10
2023-01-20T11:49:17.301Z,1.85
2023-01-20T11:51:48.862Z,1.78
2023-01-20T11:54:19.352Z,1.76
2023-01-20T11:56:48.536Z,1.67
2023-01-20T11:59:26.925Z,1.67
2023-01-20T12:02:01.661Z,1.66
2023-01-20T12:04:56.350Z,1.86
2023-01-20T12:07:27.960Z,2.12
2023-01-20T12:09:59.175Z,2.29
2023-01-20T12:12:32.962Z,2.37
2023-01-20T12:15:03.549Z,2.06
2023-01-20T12:17:41.116Z,2.00
2023-01-20T12:20:15.559Z,2.01
2023-01-20T12:22:51.311Z,2.25
2023-01-20T12:25:22.148Z,2.22
2023-01-20T12:27:52.292Z,2.19
2023-01-20T12:30:38.508Z,2.26
2023-01-20T12:33:06.525Z,2.39
2023-01-20T12:35:42.216Z,2.26
2023-01-20T12:38:19.765Z,2.37
2023-01-20T12:40:50.023Z,2.54
2023-01-20T12:43:28.916Z,2.72
2023-01-20T12:46:18.599Z,2.93
2023-01-20T12:48:56.397Z,2.92
2023-01-20T12:51:33.841Z,2.89
2023-01-20T12:54:15.192Z,2.85
2023-01-20T12:56:49.497Z,2.67
2023-01-20T12:59:22.747Z,2.51
2023-01-20T13:02:06.646Z,2.22
2023-01-20T13:05:20.792Z,2.44
2023-01-20T13:07:50.963Z,2.56
2023-01-20T13:10:34.191Z,2.85
2023-01-20T13:13:05.133Z,2.82
2023-01-20T13:15:36.397Z,2.92
2023-01-20T13:18:25.217Z,3.04
2023-01-20T13:20:53.737Z,2.90
2023-01-20T13:23:24.085Z,2.86
2023-01-20T13:25:53.448Z,2.96
2023-01-20T13:28:22.910Z,3.03
2023-01-20T13:30:53.901Z,2.75
2023-01-20T13:33:34.392Z,2.75
2023-01-20T13:36:02.623Z,2.85
2023-01-20T13:38:33.133Z,2.89
2023-01-20T13:41:05.905Z,2.92
2023-01-20T13:43:38.584Z,2.95
2023-01-20T13:46:38.245Z,2.78
2023-01-20T13:49:14.962Z,2.59
2023-01-20T13:51:48.051Z,2.66
2023-01-20T13:54:44.216Z,2.68
2023-01-20T13:57:36.666Z,2.60
2023-01-20T14:00:16.622Z,2.47
2023-01-20T14:02:44.317Z,2.64
2023-01-20T14:05:36.068Z,2.50
2023-01-20T14:08:03.753Z,2.48
2023-01-20T14:10:31.295Z,2.63
2023-01-20T14:13:00.246Z,2.67
2023-01-20T14:15:32.076Z,2.72
2023-01-20T14:18:00.748Z,2.73
2023-01-20T14:20:29.503Z,2.73
2023-01-20T14:22:57.778Z,2.62
2023-01-20T14:25:26.845Z,2.79
2023-01-20T14:27:55.729Z,2.87
2023-01-20T14:30:27.062Z,2.92
2023-01-20T14:32:54.843Z,3.04
2023-01-20T14:35:27.393Z,3.16
2023-01-20T14:37:55.275Z,3.17
2023-01-20T14:40:26.432Z,3.03
2023-01-20T14:42:58.962Z,3.05
2023-01-20T14:45:29.703Z,3.05
2023-01-20T14:47:58.158Z,2.87
2023-01-20T14:50:26.132Z,3.00
2023-01-20T14:52:53.821Z,3.03
2023-01-20T14:55:35.459Z,2.98
2023-01-20T14:58:08.409Z,3.04
2023-01-20T15:00:43.711Z,3.09
2023-01-20T15:03:15.420Z,3.16
2023-01-20T15:05:53.307Z,3.11
2023-01-20T15:08:26.270Z,3.18
2023-01-20T15:11:21.580Z,3.22
2023-01-20T15:14:13.162Z,3.26
2023-01-20T15:16:50.245Z,3.25
2023-01-20T15:19:38.786Z,3.15
2023-01-20T15:22:18.872Z,2.85
2023-01-20T15:24:47.505Z,2.72
2023-01-20T15:27:30.546Z,2.81
2023-01-20T15:30:20.846Z,2.75
2023-01-20T15:32:51.510Z,2.62
2023-01-20T15:35:22.852Z,2.62
2023-01-20T15:37:51.162Z,2.56
2023-01-20T15:40:20.513Z,2.51
2023-01-20T15:42:48.404Z,2.52
2023-01-20T15:45:16.734Z,2.61
2023-01-20T15:47:45.083Z,2.61
2023-01-20T15:50:16.486Z,2.70
2023-01-20T15:52:44.755Z,2.80
2023-01-20T15:55:13.530Z,2.74
2023-01-20T15:57:41.271Z,2.65
2023-01-20T16:00:17.144Z,2.70
2023-01-20T16:02:44.853Z,2.73
2023-01-20T16:05:15.739Z,2.68
2023-01-20T16:07:47.441Z,2.68
2023-01-20T16:10:17.247Z,2.73
2023-01-20T16:12:45.144Z,2.70
2023-01-20T16:15:17.558Z,2.67
2023-01-20T16:17:45.059Z,2.69
2023-01-20T16:20:20.190Z,2.71
2023-01-20T16:22:49.168Z,2.71
2023-01-20T16:25:17.198Z,2.66
2023-01-20T16:27:45.007Z,2.70
2023-01-20T16:30:16.105Z,2.69
2023-01-20T16:32:46.056Z,2.70
2023-01-20T16:35:14.119Z,2.77
2023-01-20T16:37:42.307Z,2.69
2023-01-20T16:40:13.301Z,2.74
2023-01-20T16:42:41.076Z,2.72
2023-01-20T16:45:20.212Z,2.77
2023-01-20T16:47:47.844Z,2.69
2023-01-20T16:50:15.765Z,2.59
2023-01-20T16:52:43.349Z,2.52
2023-01-20T16:55:13.563Z,2.51
2023-01-20T16:57:41.313Z,2.54
2023-01-20T17:00:10.121Z,2.58
2023-01-20T17:02:38.967Z,2.64
2023-01-20T17:05:07.853Z,2.60
2023-01-20T17:07:35.908Z,2.41
2023-01-20T17:10:03.472Z,2.21
2023-01-20T17:12:32.706Z,2.26
2023-01-20T17:15:00.547Z,2.14
2023-01-20T17:17:28.039Z,1.94
2023-01-20T17:19:55.521Z,1.80
2023-01-20T17:22:23.004Z,1.97
2023-01-20T17:24:50.486Z,2.07
2023-01-20T17:27:17.990Z,2.02
2023-01-20T17:29:46.830Z,1.89
2023-01-20T17:32:15.956Z,1.89
2023-01-20T17:34:43.408Z,1.70
2023-01-20T17:37:10.850Z,1.68
2023-01-20T17:39:38.324Z,1.80
2023-01-20T17:42:05.859Z,1.82
2023-01-20T17:44:33.340Z,1.93
2023-01-20T17:47:02.140Z,2.14
2023-01-20T17:49:29.584Z,1.71
2023-01-20T17:51:57.074Z,1.49
2023-01-20T17:54:24.549Z,1.22
2023-01-20T17:56:52.006Z,1.11
2023-01-20T17:59:19.462Z,1.02
2023-01-20T18:01:46.922Z,1.17
2023-01-20T18:04:16.029Z,1.37
2023-01-20T18:06:43.513Z,1.76
2023-01-20T18:09:13.829Z,1.75
2023-01-20T18:11:43.456Z,1.35
2023-01-20T18:14:11.079Z,1.04
2023-01-20T18:16:40.219Z,0.94
2023-01-20T18:19:08.136Z,1.41
2023-01-20T18:21:38.094Z,1.53
2023-01-20T18:24:08.177Z,1.54
2023-01-20T18:26:37.178Z,1.37
2023-01-20T18:29:06.628Z,1.18
2023-01-20T18:31:35.267Z,1.27
2023-01-20T18:34:04.979Z,1.57
2023-01-20T18:36:34.162Z,1.31
2023-01-20T18:39:05.615Z,1.10
2023-01-20T18:41:37.354Z,0.93
2023-01-20T18:44:06.151Z,0.93
2023-01-20T18:46:34.191Z,1.02
2023-01-20T18:49:02.123Z,1.09
2023-01-20T18:51:31.285Z,1.38
2023-01-20T18:54:00.931Z,1.25
2023-01-20T18:56:30.740Z,1.28
2023-01-20T18:58:58.470Z,1.29
2023-01-20T19:01:27.907Z,1.11
2023-01-20T19:03:56.145Z,1.38
2023-01-20T19:06:25.579Z,1.44
2023-01-20T19:08:53.374Z,1.57
2023-01-20T19:11:23.752Z,1.59
2023-01-20T19:13:53.633Z,1.82
2023-01-20T19:16:23.975Z,1.69
2023-01-20T19:18:53.101Z,1.78
2023-01-20T19:21:20.756Z,1.88
2023-01-20T19:23:49.595Z,1.77
2023-01-20T19:26:18.972Z,1.73
2023-01-20T19:28:47.450Z,1.82
2023-01-20T19:31:24.531Z,1.78
2023-01-20T19:33:59.435Z,1.77
2023-01-20T19:36:28.879Z,1.66
2023-01-20T19:39:04.747Z,1.71
2023-01-20T19:41:40.805Z,1.77
2023-01-20T19:44:09.043Z,1.70
2023-01-20T19:46:39.756Z,1.74
2023-01-20T19:49:07.993Z,1.62
2023-01-20T19:51:37.189Z,1.62
2023-01-20T19:54:05.916Z,1.77
2023-01-20T19:56:39.999Z,1.74
2023-01-20T19:59:10.287Z,1.84
2023-01-20T20:01:39.937Z,1.86
2023-01-20T20:04:13.448Z,1.96
2023-01-20T20:06:48.448Z,1.90
2023-01-20T20:09:28.097Z,1.87
2023-01-20T20:12:06.006Z,1.79
2023-01-20T20:14:35.665Z,1.92
2023-01-20T20:17:05.067Z,1.79
2023-01-20T20:19:35.620Z,1.81
2023-01-20T20:22:03.273Z,1.86
2023-01-20T20:24:32.189Z,1.98
2023-01-20T20:26:59.886Z,2.05
2023-01-20T20:29:29.231Z,2.10
2023-01-20T20:31:57.379Z,2.04
2023-01-20T20:34:31.265Z,2.03
2023-01-20T20:37:04.139Z,2.01
2023-01-20T20:39:35.132Z,1.93
2023-01-20T20:42:03.054Z,1.82
2023-01-20T20:44:40.796Z,1.94
2023-01-20T20:47:08.575Z,1.93
2023-01-20T20:49:40.087Z,2.03
2023-01-20T20:52:08.818Z,1.95
2023-01-20T20:54:36.553Z,1.89
2023-01-20T20:57:07.979Z,1.89
2023-01-20T20:59:37.626Z,1.77
2023-01-20T21:02:14.987Z,1.84
2023-01-20T21:04:43.936Z,1.82
2023-01-20T21:07:12.036Z,1.77
2023-01-20T21:09:39.694Z,1.81
2023-01-20T21:12:09.990Z,1.69
2023-01-20T21:14:37.594Z,1.60
2023-01-20T21:17:09.346Z,1.55
2023-01-20T21:19:37.200Z,1.69
2023-01-20T21:22:09.154Z,1.73
2023-01-20T21:24:36.695Z,1.70
2023-01-20T21:27:07.962Z,1.62
2023-01-20T21:29:36.052Z,1.64
2023-01-20T21:32:06.502Z,1.55
2023-01-20T21:34:37.039Z,1.53
2023-01-20T21:37:07.283Z,1.47
2023-01-20T21:39:35.345Z,1.57
2023-01-20T21:42:06.089Z,1.52
2023-01-20T21:44:32.825Z,1.54
2023-01-20T21:47:01.460Z,1.63
2023-01-20T21:49:46.909Z,1.69
2023-01-20T21:52:34.536Z,1.60
2023-01-20T21:55:02.220Z,1.60
2023-01-20T21:57:31.483Z,1.58
2023-01-20T21:59:59.191Z,1.55
2023-01-20T22:02:27.323Z,1.50
2023-01-20T22:04:55.365Z,1.52
2023-01-20T22:07:24.829Z,1.52
2023-01-20T22:09:52.401Z,1.58
2023-01-20T22:12:20.039Z,1.57
2023-01-20T22:14:47.633Z,1.57
2023-01-20T22:17:15.403Z,1.51
2023-01-20T22:19:43.805Z,1.57
2023-01-20T22:22:13.484Z,1.55
2023-01-20T22:24:43.963Z,1.52
2023-01-20T22:27:11.527Z,1.55
2023-01-20T22:29:39.056Z,1.59
2023-01-20T22:32:06.628Z,1.56
2023-01-20T22:34:34.244Z,1.55
2023-01-20T22:37:01.817Z,1.40
2023-01-20T22:39:29.649Z,1.39
2023-01-20T22:41:58.585Z,1.53
2023-01-20T22:44:26.239Z,1.55
2023-01-20T22:46:53.822Z,1.54
2023-01-20T22:49:21.360Z,1.63
2023-01-20T22:51:48.862Z,1.46
2023-01-20T22:54:16.450Z,1.53
2023-01-20T22:56:44.003Z,1.52
2023-01-20T22:59:13.472Z,1.64
2023-01-20T23:01:41.140Z,1.62
2023-01-20T23:04:08.707Z,1.66
2023-01-20T23:06:37.196Z,1.47
2023-01-20T23:09:07.378Z,1.62
2023-01-20T23:11:36.282Z,1.59
2023-01-20T23:14:04.005Z,1.65
2023-01-20T23:16:33.007Z,1.66
2023-01-20T23:19:00.577Z,1.59
2023-01-20T23:21:28.095Z,1.63
2023-01-20T23:23:55.981Z,1.59
2023-01-20T23:26:25.524Z,1.62
2023-01-20T23:28:54.333Z,1.55
2023-01-20T23:31:22.902Z,1.55
2023-01-20T23:33:52.026Z,1.64
2023-01-20T23:36:20.945Z,1.68
2023-01-20T23:38:48.650Z,1.56
2023-01-20T23:41:16.894Z,1.60
2023-01-20T23:43:44.569Z,1.68
2023-01-20T23:46:12.231Z,1.51
2023-01-20T23:48:40.186Z,1.49
2023-01-20T23:51:09.114Z,1.65
2023-01-20T23:53:41.297Z,1.58
2023-01-20T23:56:12.165Z,1.62
2023-01-20T23:58:40.412Z,1.63
